Time;durP1;ratioP1;P1;durP2;ratioP2;P2;SDS_P1;SDS_P2;PMS_P1;PMS_P2;Temp;Humidity;BMP_temperature;BMP_pressure;BME280_temperature;BME280_humidity;BME280_pressure;Samples;Min_cycle;Max_cycle;Signal;HPM_P1;HPM_P2
2021/12/01 00:01:32;;;;;;;;;3.40;3.40;;;;;7.88;37.20;98806.09;5051174;28;8846;-78
2021/12/01 00:04:01;;;;;;;;;4.60;2.60;;;;;7.90;36.70;98809.56;5046857;28;8983;-77
2021/12/01 00:06:29;;;;;;;;;5.80;5.80;;;;;7.80;37.32;98807.81;5048959;28;8855;-77
2021/12/01 00:08:58;;;;;;;;;3.40;3.40;;;;;7.77;37.84;98792.28;5063953;28;8843;-76
2021/12/01 00:11:28;;;;;;;;;4.00;2.80;;;;;7.38;38.83;98799.19;5048434;28;9592;-78
2021/12/01 00:13:57;;;;;;;;;2.00;2.00;;;;;7.60;38.47;98805.25;5014802;28;8847;-76
2021/12/01 00:16:26;;;;;;;;;5.00;3.00;;;;;7.47;38.71;98795.75;5049039;28;8888;-77
2021/12/01 00:18:55;;;;;;;;;3.80;3.00;;;;;7.33;39.59;98798.31;5047336;28;8882;-75
2021/12/01 00:21:23;;;;;;;;;2.00;2.00;;;;;7.23;39.45;98802.66;5030793;28;8873;-75
2021/12/01 00:23:52;;;;;;;;;2.00;2.00;;;;;7.34;39.64;98818.22;5047675;28;8874;-75
2021/12/01 00:26:21;;;;;;;;;5.20;3.00;;;;;7.50;38.62;98819.06;5049301;28;8939;-75
2021/12/01 00:28:51;;;;;;;;;3.40;2.60;;;;;7.71;39.50;98828.59;5048762;28;8963;-76
2021/12/01 00:31:20;;;;;;;;;2.40;1.00;;;;;7.79;38.70;98843.28;5048433;28;8871;-77
2021/12/01 00:33:50;;;;;;;;;1.60;1.60;;;;;7.66;38.51;98843.31;5047082;28;8956;-76
2021/12/01 00:36:18;;;;;;;;;5.80;4.80;;;;;7.92;38.16;98836.38;5046501;28;8858;-76
2021/12/01 00:38:48;;;;;;;;;4.20;4.20;;;;;7.88;38.20;98844.16;5047599;28;8877;-79
2021/12/01 00:41:20;;;;;;;;;2.20;2.00;;;;;7.95;38.28;98841.53;5048508;28;8867;-76
2021/12/01 00:43:52;;;;;;;;;6.00;3.40;;;;;7.99;37.81;98851.03;5047550;28;8889;-77
2021/12/01 00:46:23;;;;;;;;;5.20;5.20;;;;;8.00;37.63;98844.16;5048241;28;8862;-76
2021/12/01 00:48:53;;;;;;;;;2.60;2.60;;;;;8.20;38.19;98852.75;5047723;28;8839;-78
2021/12/01 00:51:22;;;;;;;;;2.00;2.00;;;;;8.32;38.23;98851.84;5047278;28;8866;-75
2021/12/01 00:53:50;;;;;;;;;8.20;5.20;;;;;8.39;37.89;98860.47;5046859;28;8870;-77
2021/12/01 00:56:19;;;;;;;;;6.60;2.80;;;;;8.29;37.88;98853.59;5033324;28;8884;-77
2021/12/01 00:58:48;;;;;;;;;3.00;3.00;;;;;8.45;37.66;98854.44;5048155;28;8850;-76
2021/12/01 01:01:18;;;;;;;;;5.20;5.20;;;;;8.50;36.77;98858.75;5047557;28;8874;-77
2021/12/01 01:03:49;;;;;;;;;3.00;2.00;;;;;8.52;37.39;98861.34;5012829;28;8835;-75
2021/12/01 01:06:17;;;;;;;;;6.80;6.60;;;;;8.59;37.65;98852.66;5046324;28;8948;-77
2021/12/01 01:08:46;;;;;;;;;5.00;5.00;;;;;8.69;36.96;98845.69;5046534;28;8889;-76
2021/12/01 01:16:52;;;;;;;;;7.80;6.20;;;;;8.77;37.70;98838.72;5046275;28;8870;-75
2021/12/01 01:19:21;;;;;;;;;5.20;4.20;;;;;8.84;37.60;98834.38;5046467;28;8859;-77
2021/12/01 01:21:51;;;;;;;;;4.60;4.60;;;;;8.85;36.96;98836.09;5047355;28;9648;-77
2021/12/01 01:24:21;;;;;;;;;5.80;5.00;;;;;8.67;38.03;98839.63;5047117;28;8890;-77
2021/12/01 01:26:50;;;;;;;;;3.40;3.40;;;;;8.77;37.51;98838.72;5063093;28;8867;-75
2021/12/01 01:29:22;;;;;;;;;4.60;4.60;;;;;8.81;37.75;98824.84;5046312;28;8839;-76
2021/12/01 01:31:56;;;;;;;;;2.60;2.60;;;;;8.58;37.40;98818.03;5047704;28;8862;-75
2021/12/01 01:34:26;;;;;;;;;8.80;5.00;;;;;8.76;37.27;98821.41;5047108;28;8902;-76
2021/12/01 01:36:55;;;;;;;;;4.60;4.60;;;;;8.82;37.19;98815.31;5047638;28;8886;-76
2021/12/01 01:39:24;;;;;;;;;5.40;4.60;;;;;8.85;36.46;98823.09;5046684;28;8854;-77
2021/12/01 01:41:54;;;;;;;;;5.00;5.00;;;;;8.88;36.96;98815.28;5047591;28;8851;-75
2021/12/01 01:44:22;;;;;;;;;5.00;3.80;;;;;8.95;36.79;98822.16;5063060;28;9789;-75
2021/12/01 01:46:52;;;;;;;;;10.00;5.20;;;;;8.92;37.10;98811.78;5046002;28;8858;-76
2021/12/01 01:49:34;;;;;;;;;5.80;3.80;;;;;8.86;37.24;98819.63;5046312;28;8947;-76
2021/12/01 01:52:03;;;;;;;;;5.40;4.20;;;;;8.91;36.86;98821.31;5063052;28;8867;-77
2021/12/01 01:54:31;;;;;;;;;5.00;5.00;;;;;8.92;36.86;98816.97;5047586;28;8871;-74
2021/12/01 01:57:00;;;;;;;;;8.20;5.20;;;;;8.97;37.07;98813.47;5045762;28;8882;-76
2021/12/01 01:59:29;;;;;;;;;7.60;5.00;;;;;8.94;37.33;98810.91;5047301;28;8855;-76
2021/12/01 02:02:01;;;;;;;;;4.40;4.40;;;;;8.85;36.60;98810.09;5046152;28;8962;-76
2021/12/01 02:04:33;;;;;;;;;6.00;3.00;;;;;8.84;37.11;98818.78;5016750;28;8920;-76
2021/12/01 02:07:03;;;;;;;;;5.40;5.40;;;;;8.90;37.78;98818.72;5049537;28;8952;-77
2021/12/01 02:09:33;;;;;;;;;5.00;4.60;;;;;8.71;37.65;98810.16;5066399;28;8842;-75
2021/12/01 02:12:03;;;;;;;;;5.00;5.00;;;;;8.58;37.39;98807.63;5050999;28;8866;-76
2021/12/01 02:14:32;;;;;;;;;4.00;3.80;;;;;8.72;37.62;98812.75;5049284;28;8847;-76
2021/12/01 02:17:02;;;;;;;;;5.00;5.00;;;;;8.67;38.09;98809.31;5050940;28;9730;-75
2021/12/01 02:19:31;;;;;;;;;5.60;5.20;;;;;8.57;37.50;98807.63;5051072;28;9621;-76
2021/12/01 02:22:01;;;;;;;;;5.00;5.00;;;;;8.66;37.47;98802.41;5050134;28;8947;-75
2021/12/01 02:24:30;;;;;;;;;5.00;4.60;;;;;8.62;38.46;98813.69;5049716;28;8885;-79
2021/12/01 02:26:59;;;;;;;;;5.60;5.00;;;;;8.63;38.62;98814.53;5045820;28;8897;-76
2021/12/01 02:29:28;;;;;;;;;3.00;3.00;;;;;8.68;38.48;98823.19;5048576;28;8843;-76
2021/12/01 02:31:57;;;;;;;;;5.40;5.40;;;;;8.63;37.96;98809.34;5050017;28;8847;-75
2021/12/01 02:34:26;;;;;;;;;5.60;5.20;;;;;8.73;38.51;98816.22;5062807;28;8861;-77
2021/12/01 02:36:57;;;;;;;;;3.00;3.00;;;;;8.62;37.50;98800.69;5047464;28;8854;-76
2021/12/01 02:39:29;;;;;;;;;6.00;5.00;;;;;8.46;37.54;98806.81;5050265;28;8875;-77
2021/12/01 02:42:01;;;;;;;;;5.00;3.00;;;;;8.54;38.68;98805.03;5048781;28;9020;-75
2021/12/01 02:44:30;;;;;;;;;3.80;3.80;;;;;8.63;38.33;98814.53;5047589;28;8887;-78
2021/12/01 02:47:00;;;;;;;;;2.60;2.60;;;;;8.71;37.76;98817.97;5030904;28;8836;-76
2021/12/01 02:49:29;;;;;;;;;5.40;3.00;;;;;8.76;38.44;98821.41;5047798;28;8974;-76
2021/12/01 02:51:58;;;;;;;;;0.80;0.80;;;;;8.88;38.32;98816.13;5047622;28;9098;-78
2021/12/01 02:54:29;;;;;;;;;5.60;5.20;;;;;9.00;37.91;98817.81;5047041;28;8937;-77
2021/12/01 02:56:59;;;;;;;;;3.00;3.00;;;;;9.07;37.92;98821.22;5031000;28;8848;-77
2021/12/01 02:59:28;;;;;;;;;2.60;2.60;;;;;8.90;37.60;98819.63;5030920;28;8972;-78
2021/12/01 03:01:57;;;;;;;;;5.60;5.00;;;;;9.05;37.93;98828.19;5047430;28;9530;-78
2021/12/01 03:04:26;;;;;;;;;5.00;3.00;;;;;9.18;37.47;98829.81;5030570;28;8986;-78
2021/12/01 03:06:57;;;;;;;;;3.80;3.80;;;;;9.24;37.87;98845.38;5030322;28;8892;-78
2021/12/01 03:09:27;;;;;;;;;4.20;3.40;;;;;9.34;37.94;98843.63;5047256;28;9598;-78
2021/12/01 03:11:57;;;;;;;;;6.00;6.00;;;;;9.44;37.28;98844.41;5030542;28;8840;-79
2021/12/01 03:14:25;;;;;;;;;2.00;2.00;;;;;9.41;37.11;98847.03;5046294;28;9014;-79
2021/12/01 03:16:55;;;;;;;;;5.00;3.00;;;;;9.47;37.09;98857.38;5048389;28;8865;-77
2021/12/01 03:19:24;;;;;;;;;7.00;4.60;;;;;9.52;37.27;98856.47;5048267;28;8855;-77
2021/12/01 03:21:52;;;;;;;;;5.20;5.20;;;;;9.59;37.30;98854.69;5049432;28;8958;-77
2021/12/01 03:24:21;;;;;;;;;3.80;3.40;;;;;9.61;37.10;98854.69;5064836;28;8858;-75
2021/12/01 03:26:51;;;;;;;;;3.60;3.60;;;;;9.64;37.09;98865.94;5026630;28;8977;-75
2021/12/01 03:29:19;;;;;;;;;4.20;4.20;;;;;9.55;37.03;98859.06;5009970;28;8880;-79
2021/12/01 03:31:49;;;;;;;;;2.80;2.80;;;;;9.61;36.85;98865.97;5026785;28;8871;-76
2021/12/01 03:34:18;;;;;;;;;4.40;3.80;;;;;9.65;37.48;98872.00;4994334;28;8927;-76
2021/12/01 03:36:47;;;;;;;;;3.00;3.00;;;;;9.70;37.60;98871.09;4994267;28;8860;-74
2021/12/01 03:39:15;;;;;;;;;5.00;5.00;;;;;9.72;37.58;98865.88;5010170;28;8903;-76
2021/12/01 03:41:44;;;;;;;;;3.00;3.00;;;;;9.74;37.30;98872.78;5026233;28;9583;-76
2021/12/01 03:44:14;;;;;;;;;1.00;1.00;;;;;9.80;37.61;98873.63;5010288;28;8946;-76
2021/12/01 03:46:43;;;;;;;;;5.80;5.00;;;;;9.76;37.17;98878.00;5026388;28;8848;-78
2021/12/01 03:49:12;;;;;;;;;3.00;3.00;;;;;9.79;37.55;98877.94;5010067;28;8934;-76
2021/12/01 03:51:40;;;;;;;;;5.80;4.60;;;;;9.84;37.32;98878.78;5026346;28;8872;-74
2021/12/01 03:54:09;;;;;;;;;3.20;3.20;;;;;9.85;36.88;98882.25;4977071;28;8857;-76
2021/12/01 03:56:38;;;;;;;;;6.20;6.00;;;;;9.89;37.23;98878.75;5010068;28;9621;-76
2021/12/01 03:59:07;;;;;;;;;5.20;5.20;;;;;9.86;37.37;98881.38;5047837;28;8948;-76
2021/12/01 04:01:37;;;;;;;;;6.00;5.20;;;;;9.90;37.23;98890.88;5049741;28;8859;-78
2021/12/01 04:04:06;;;;;;;;;6.40;6.40;;;;;9.85;36.78;98884.84;5049253;28;8886;-76
2021/12/01 04:06:34;;;;;;;;;9.60;8.00;;;;;9.74;36.93;98895.38;5047592;28;8984;-77
2021/12/01 04:09:04;;;;;;;;;5.40;5.40;;;;;9.80;37.20;98889.25;5063905;28;9013;-79
2021/12/01 04:11:33;;;;;;;;;4.40;3.00;;;;;9.76;36.75;98904.88;5047589;28;8982;-78
2021/12/01 04:14:02;;;;;;;;;3.00;3.00;;;;;9.78;36.35;98906.63;5049023;28;8920;-76
2021/12/01 04:16:31;;;;;;;;;5.40;3.80;;;;;9.35;36.76;98916.44;5047299;28;8858;-76
2021/12/01 04:19:01;;;;;;;;;5.20;5.20;;;;;9.38;37.83;98917.31;5026216;28;8871;-75
2021/12/01 04:21:30;;;;;;;;;6.00;5.00;;;;;9.44;37.04;98918.13;5025522;28;8906;-76
2021/12/01 04:23:59;;;;;;;;;6.80;6.80;;;;;9.52;37.68;98923.28;5026193;28;9003;-78
2021/12/01 04:26:31;;;;;;;;;5.40;5.40;;;;;9.54;37.32;98913.72;5024495;28;9027;-77
2021/12/01 04:29:01;;;;;;;;;6.60;5.80;;;;;9.62;37.40;98909.34;5025842;28;8875;-75
2021/12/01 04:31:32;;;;;;;;;4.80;4.80;;;;;9.66;37.15;98900.63;4992657;28;8864;-76
2021/12/01 04:34:03;;;;;;;;;6.20;6.20;;;;;9.48;37.33;98916.38;5025901;28;10016;-76
2021/12/01 04:36:34;;;;;;;;;5.00;5.00;;;;;9.58;37.26;98918.03;5008864;28;8882;-75
2021/12/01 04:39:06;;;;;;;;;7.00;4.80;;;;;9.66;37.70;98913.66;5009872;28;9578;-76
2021/12/01 04:41:39;;;;;;;;;5.00;4.80;;;;;9.73;37.39;98909.25;4961616;28;8894;-74
2021/12/01 04:44:11;;;;;;;;;3.00;3.00;;;;;9.79;37.25;98911.81;4992849;28;8852;-75
2021/12/01 04:46:43;;;;;;;;;6.40;5.40;;;;;9.85;37.74;98910.88;5025758;28;8999;-79
2021/12/01 04:49:16;;;;;;;;;5.20;5.20;;;;;9.90;37.81;98915.19;5025870;28;8833;-76
2021/12/01 04:51:47;;;;;;;;;7.40;7.40;;;;;9.92;37.35;98900.44;5009142;28;8887;-76
2021/12/01 04:54:16;;;;;;;;;6.00;6.00;;;;;9.94;37.74;98908.22;5025742;28;8861;-75
2021/12/01 04:56:46;;;;;;;;;7.20;6.20;;;;;9.94;37.92;98918.63;5016472;28;8891;-75
2021/12/01 04:59:16;;;;;;;;;37.50;32.50;;;;;9.98;37.84;98909.06;5042897;28;8859;-76
2021/12/01 05:01:45;;;;;;;;;43.50;36.75;;;;;9.99;37.73;98916.88;5027428;28;8875;-76
2021/12/01 05:04:15;;;;;;;;;12.60;7.60;;;;;10.01;37.66;98909.91;5027699;28;8879;-74
2021/12/01 05:06:44;;;;;;;;;19.20;13.80;;;;;10.01;38.03;98917.72;5009058;28;8859;-75
2021/12/01 05:09:13;;;;;;;;;9.80;9.80;;;;;9.99;38.23;98918.63;5026201;28;8855;-77
2021/12/01 05:11:42;;;;;;;;;16.80;16.00;;;;;10.00;37.49;98926.41;5028105;28;8918;-78
2021/12/01 05:14:12;;;;;;;;;32.80;27.80;;;;;10.00;37.69;98928.13;5026646;28;8887;-77
2021/12/01 05:16:42;;;;;;;;;15.80;14.00;;;;;10.01;38.00;98929.88;5027137;28;8844;-75
2021/12/01 05:19:11;;;;;;;;;15.80;12.80;;;;;10.00;38.95;98931.63;5027815;28;8863;-75
2021/12/01 05:21:42;;;;;;;;;10.60;9.40;;;;;10.05;38.36;98931.56;5027769;28;8867;-76
2021/12/01 05:24:11;;;;;;;;;22.00;21.00;;;;;10.03;38.39;98939.41;5027537;28;9658;-77
2021/12/01 05:26:40;;;;;;;;;42.50;39.75;;;;;10.01;38.51;98943.75;5026073;28;8976;-75
2021/12/01 05:29:09;;;;;;;;;13.20;11.20;;;;;9.98;37.94;98948.13;5009939;28;8879;-77
2021/12/01 05:31:37;;;;;;;;;44.25;36.75;;;;;9.95;38.50;98946.41;5029384;28;8870;-76
2021/12/01 05:34:06;;;;;;;;;11.20;8.00;;;;;9.94;37.81;98944.69;5047874;28;8855;-78
2021/12/01 05:36:36;;;;;;;;;21.80;18.60;;;;;9.94;38.27;98947.28;5046648;28;8886;-76
2021/12/01 05:39:06;;;;;;;;;15.40;13.80;;;;;9.97;37.86;98947.28;5049798;28;8869;-76
2021/12/01 05:41:35;;;;;;;;;17.20;17.00;;;;;9.97;37.92;98949.88;5046855;28;8879;-76
2021/12/01 05:44:04;;;;;;;;;18.40;16.00;;;;;9.97;38.25;98949.03;5015887;28;8879;-76
2021/12/01 05:46:34;;;;;;;;;19.00;17.40;;;;;9.91;37.74;98955.13;5051335;28;9580;-77
2021/12/01 05:49:04;;;;;;;;;17.80;16.20;;;;;9.89;38.23;98956.88;5016589;28;8847;-77
2021/12/01 05:51:33;;;;;;;;;14.40;12.00;;;;;9.91;38.54;98957.75;5034406;28;8884;-76
2021/12/01 05:54:03;;;;;;;;;15.40;13.20;;;;;9.86;38.08;98956.91;5049906;28;8855;-76
2021/12/01 05:56:33;;;;;;;;;15.40;14.80;;;;;9.86;38.64;98960.38;5051067;28;8859;-76
2021/12/01 05:59:02;;;;;;;;;12.20;12.20;;;;;9.89;37.99;98967.31;5050850;28;8854;-78
2021/12/01 06:01:31;;;;;;;;;13.00;13.00;;;;;9.92;38.31;98973.38;5049773;28;8893;-78
2021/12/01 06:03:59;;;;;;;;;22.00;16.40;;;;;9.92;38.74;98975.06;5051015;28;8847;-77
2021/12/01 06:06:28;;;;;;;;;15.40;13.20;;;;;9.88;38.45;98973.38;5066045;28;8855;-77
2021/12/01 06:08:57;;;;;;;;;17.60;13.40;;;;;9.91;38.53;98976.81;5050761;28;8928;-75
2021/12/01 06:11:26;;;;;;;;;16.00;16.00;;;;;9.91;38.54;98979.44;5050189;28;9039;-78
2021/12/01 06:13:56;;;;;;;;;19.80;17.40;;;;;9.68;39.10;98982.19;5052893;28;8851;-76
2021/12/01 06:16:25;;;;;;;;;16.60;15.40;;;;;9.78;39.19;98988.19;5051656;28;8951;-76
2021/12/01 06:18:54;;;;;;;;;16.40;16.40;;;;;9.86;39.05;98986.41;5050912;28;8889;-79
2021/12/01 06:21:22;;;;;;;;;18.40;17.20;;;;;9.88;38.65;98982.03;5049602;28;8859;-79
2021/12/01 06:23:51;;;;;;;;;15.00;12.40;;;;;9.89;38.97;98990.75;5049186;28;8863;-77
2021/12/01 06:26:20;;;;;;;;;17.80;16.80;;;;;9.91;38.95;98989.00;5050214;28;8875;-79
2021/12/01 06:28:49;;;;;;;;;14.40;14.40;;;;;9.82;39.40;98995.13;5049258;28;8839;-76
2021/12/01 06:31:19;;;;;;;;;16.80;16.20;;;;;9.83;38.78;99002.06;4999203;28;8866;-78
2021/12/01 06:33:48;;;;;;;;;16.80;15.00;;;;;9.88;39.21;98992.47;5032602;28;8944;-76
2021/12/01 06:36:17;;;;;;;;;20.00;13.80;;;;;9.90;39.06;98998.53;5051401;28;8977;-76
2021/12/01 06:38:46;;;;;;;;;12.80;11.00;;;;;9.92;39.06;98996.81;5032183;28;8882;-77
2021/12/01 06:41:15;;;;;;;;;16.20;12.20;;;;;9.95;39.26;98998.50;5047623;28;8851;-76
2021/12/01 06:43:44;;;;;;;;;12.00;12.00;;;;;9.96;38.87;98995.00;5045590;28;8884;-77
2021/12/01 06:46:13;;;;;;;;;15.60;14.80;;;;;10.00;38.94;99001.97;5032670;28;8877;-77
2021/12/01 06:48:43;;;;;;;;;8.00;8.00;;;;;10.03;39.17;98988.88;5046618;28;9014;-77
2021/12/01 06:51:11;;;;;;;;;13.60;12.80;;;;;9.99;39.03;98994.16;5050147;28;8855;-77
2021/12/01 06:53:41;;;;;;;;;9.20;5.80;;;;;9.80;38.92;98994.25;5050031;28;8870;-77
2021/12/01 06:56:09;;;;;;;;;10.80;10.80;;;;;9.75;38.95;99003.84;5049680;28;8985;-75
2021/12/01 06:58:39;;;;;;;;;14.20;12.00;;;;;9.87;38.99;99000.31;5032397;28;8981;-75
2021/12/01 07:01:08;;;;;;;;;13.00;11.80;;;;;10.01;38.98;99002.81;5048567;28;9661;-75
2021/12/01 07:03:43;;;;;;;;;12.80;12.80;;;;;10.12;38.82;99011.41;5048667;28;8932;-78
2021/12/01 07:06:12;;;;;;;;;14.80;13.40;;;;;10.11;39.01;99007.06;5047266;28;8850;-76
2021/12/01 07:08:41;;;;;;;;;13.00;12.60;;;;;10.25;39.09;99007.84;5027230;28;8872;-75
2021/12/01 07:11:10;;;;;;;;;18.00;16.20;;;;;10.37;39.36;99000.81;5009987;28;8856;-76
2021/12/01 07:13:39;;;;;;;;;12.80;12.20;;;;;10.44;38.70;98999.91;5010253;28;8876;-76
2021/12/01 07:16:07;;;;;;;;;13.20;11.20;;;;;10.46;38.63;98996.41;5010728;28;9003;-77
2021/12/01 07:18:36;;;;;;;;;14.20;13.40;;;;;10.55;38.48;99000.69;5026249;28;8974;-77
2021/12/01 07:21:06;;;;;;;;;18.80;13.80;;;;;10.58;38.67;99003.22;5028187;28;8872;-75
2021/12/01 07:23:35;;;;;;;;;15.00;15.00;;;;;10.65;38.68;99004.91;5027473;28;8914;-80
2021/12/01 07:26:05;;;;;;;;;13.40;12.80;;;;;10.75;38.29;99010.03;5010642;28;8930;-76
2021/12/01 07:28:34;;;;;;;;;21.60;17.40;;;;;10.81;38.50;98994.31;5026320;28;8832;-77
2021/12/01 07:31:02;;;;;;;;;18.80;18.00;;;;;10.93;38.74;99008.09;4935195;28;12363;-77
2021/12/01 07:33:32;;;;;;;;;19.20;17.40;;;;;11.04;38.58;99010.59;5001090;28;8893;-76
2021/12/01 07:36:01;;;;;;;;;17.20;16.60;;;;;11.15;38.38;99010.47;5027456;28;8861;-81
2021/12/01 07:38:31;;;;;;;;;20.40;19.60;;;;;11.26;38.38;99005.13;5010260;28;8864;-76
2021/12/01 07:41:00;;;;;;;;;32.60;28.00;;;;;11.26;37.95;99005.13;5048425;28;8944;-78
2021/12/01 07:43:29;;;;;;;;;29.00;26.00;;;;;11.35;38.13;99012.00;5028131;28;8860;-78
2021/12/01 07:46:00;;;;;;;;;31.00;29.25;;;;;11.42;38.20;99001.44;5014784;28;8885;-81
2021/12/01 07:48:30;;;;;;;;;27.25;25.50;;;;;11.50;37.58;99001.34;5031728;28;8887;-78
2021/12/01 07:50:59;;;;;;;;;32.00;26.50;;;;;11.45;37.86;99008.38;5048295;28;8860;-79
2021/12/01 07:53:27;;;;;;;;;30.50;30.00;;;;;11.48;37.56;98993.53;4998098;28;8990;-79
2021/12/01 07:55:58;;;;;;;;;35.25;30.25;;;;;11.55;37.44;99003.88;5041106;28;8879;-80
2021/12/01 07:58:26;;;;;;;;;31.25;26.50;;;;;11.60;37.55;99010.78;5047024;28;9726;-77
2021/12/01 08:00:55;;;;;;;;;33.25;32.00;;;;;11.64;37.31;99009.00;5045703;28;8849;-78
2021/12/01 08:03:24;;;;;;;;;28.50;27.00;;;;;11.68;37.22;99014.16;5047025;28;8841;-80
2021/12/01 08:05:53;;;;;;;;;23.75;20.75;;;;;11.73;37.97;99029.75;5062937;28;9442;-79
2021/12/01 08:08:22;;;;;;;;;24.50;24.50;;;;;11.80;37.07;99010.50;4999783;28;9879;-78
2021/12/01 08:10:51;;;;;;;;;27.25;25.00;;;;;11.87;37.79;99012.16;5050198;28;8849;-79
2021/12/01 08:13:20;;;;;;;;;29.75;27.75;;;;;11.96;36.97;99016.41;5049079;28;8920;-78
2021/12/01 08:15:51;;;;;;;;;32.25;30.75;;;;;12.03;36.97;99012.81;5048721;28;8973;-79
2021/12/01 08:18:20;;;;;;;;;36.50;34.00;;;;;12.07;36.80;99009.25;5047146;28;8890;-76
2021/12/01 08:20:48;;;;;;;;;31.80;30.60;;;;;12.09;37.22;99009.25;5047051;28;8963;-78
2021/12/01 08:23:17;;;;;;;;;37.50;33.25;;;;;12.16;37.06;99010.03;5030606;28;8885;-79
2021/12/01 08:25:48;;;;;;;;;33.75;31.50;;;;;12.16;37.39;99005.66;5048215;28;9575;-79
2021/12/01 08:28:17;;;;;;;;;29.50;29.00;;;;;12.23;37.37;99006.41;5030214;28;8857;-78
2021/12/01 08:30:47;;;;;;;;;29.40;26.20;;;;;12.29;36.83;99007.19;5028735;28;8985;-81
2021/12/01 08:33:17;;;;;;;;;31.75;27.00;;;;;12.32;36.86;99003.66;4996319;28;8857;-79
2021/12/01 08:35:47;;;;;;;;;31.25;30.75;;;;;12.40;36.75;99007.00;5028634;28;8876;-80
2021/12/01 08:38:16;;;;;;;;;30.00;27.20;;;;;12.42;37.01;99002.63;5028824;28;8892;-78
2021/12/01 08:40:45;;;;;;;;;33.25;31.25;;;;;12.45;37.21;99009.53;5028489;28;8857;-77
2021/12/01 08:43:14;;;;;;;;;31.50;28.75;;;;;12.32;36.82;99008.03;4976280;28;8938;-80
2021/12/01 08:45:43;;;;;;;;;35.75;34.75;;;;;12.42;37.03;99017.44;5028354;28;9587;-78
2021/12/01 08:48:13;;;;;;;;;36.75;30.75;;;;;12.51;36.53;99014.66;5028924;28;9034;-79
2021/12/01 08:50:42;;;;;;;;;32.75;29.00;;;;;12.59;36.76;99028.50;5044300;28;9594;-78
2021/12/01 08:53:10;;;;;;;;;32.25;32.25;;;;;12.56;36.23;99022.44;5045620;28;9720;-77
2021/12/01 08:55:41;;;;;;;;;30.40;25.60;;;;;12.48;36.94;99023.44;5012995;28;8884;-79
2021/12/01 08:58:12;;;;;;;;;20.80;20.00;;;;;12.17;36.40;99027.41;4997448;28;8877;-79
2021/12/01 09:00:44;;;;;;;;;25.60;25.00;;;;;12.25;37.29;99026.44;5045696;28;8865;-78
2021/12/01 09:03:16;;;;;;;;;27.40;25.60;;;;;12.43;36.75;99017.41;5009738;28;8864;-78
2021/12/01 09:05:46;;;;;;;;;26.20;23.20;;;;;12.58;37.18;99016.28;5010239;28;8918;-79
2021/12/01 09:08:17;;;;;;;;;23.40;22.20;;;;;12.74;36.65;99021.25;4984841;28;8854;-80
2021/12/01 09:10:46;;;;;;;;;24.00;23.40;;;;;12.88;36.94;99006.16;5029170;28;8846;-78
2021/12/01 09:13:16;;;;;;;;;27.00;23.60;;;;;12.99;36.29;99006.84;4982592;28;9711;-78
2021/12/01 09:15:46;;;;;;;;;24.40;24.00;;;;;13.02;36.02;99011.13;5032814;28;8878;-79
2021/12/01 09:18:17;;;;;;;;;20.60;18.20;;;;;13.09;35.26;99010.13;5032588;28;8862;-78
2021/12/01 09:20:46;;;;;;;;;20.00;16.00;;;;;13.20;35.13;99010.78;4998592;28;8868;-79
2021/12/01 09:23:16;;;;;;;;;18.40;16.80;;;;;13.17;34.81;99004.75;4975272;28;8867;-78
2021/12/01 09:25:47;;;;;;;;;20.60;19.40;;;;;13.16;34.67;99003.88;4969012;28;8895;-77
2021/12/01 09:28:17;;;;;;;;;16.40;13.80;;;;;12.87;35.20;98997.47;4974674;28;8864;-79
2021/12/01 09:30:47;;;;;;;;;17.40;17.20;;;;;13.03;36.00;98997.16;4953003;28;8863;-81
2021/12/01 09:33:18;;;;;;;;;16.80;15.60;;;;;13.18;35.93;98982.91;4953017;28;8859;-83
2021/12/01 09:35:47;;;;;;;;;15.00;13.20;;;;;13.33;35.18;98966.06;4968603;28;8835;-80
2021/12/01 09:38:17;;;;;;;;;18.40;18.40;;;;;13.22;35.49;98968.88;4925336;28;8917;-79
2021/12/01 09:40:51;;;;;;;;;22.60;21.00;;;;;13.38;34.66;98961.56;4940530;28;8873;-80
2021/12/01 09:43:25;;;;;;;;;11.60;11.00;;;;;13.18;34.82;98969.81;4967657;28;8886;-79
2021/12/01 09:45:55;;;;;;;;;16.00;14.40;;;;;13.34;34.25;98970.41;4953468;28;9636;-79
2021/12/01 09:48:25;;;;;;;;;14.60;14.20;;;;;13.24;34.15;98970.53;4954200;28;8851;-78
2021/12/01 09:51:13;;;;;;;;;14.40;12.60;;;;;13.44;33.87;98958.84;4916606;29;8923;-79
2021/12/01 09:53:43;;;;;;;;;10.20;10.00;;;;;13.48;33.67;98959.59;4923833;28;8882;-78
2021/12/01 09:56:11;;;;;;;;;9.60;9.60;;;;;13.61;34.11;98966.31;4970982;28;8872;-81
2021/12/01 09:58:42;;;;;;;;;11.40;7.40;;;;;13.64;33.21;98959.25;4970403;28;8864;-80
2021/12/01 10:01:14;;;;;;;;;10.40;9.40;;;;;13.74;33.60;98969.50;4952511;28;8860;-80
2021/12/01 10:03:45;;;;;;;;;17.40;12.60;;;;;13.77;33.75;98965.06;4924155;28;8946;-78
2021/12/01 10:06:17;;;;;;;;;11.60;11.60;;;;;13.83;32.85;98943.09;4958008;28;9025;-77
2021/12/01 10:08:47;;;;;;;;;11.80;10.40;;;;;14.04;33.54;98950.47;4972066;28;9080;-79
2021/12/01 10:11:18;;;;;;;;;10.60;9.20;;;;;14.06;33.36;98941.69;4961092;28;8878;-79
2021/12/01 10:13:51;;;;;;;;;7.20;6.80;;;;;14.26;32.55;98931.56;4957769;28;8912;-78
2021/12/01 10:16:21;;;;;;;;;8.00;7.80;;;;;14.48;32.28;98929.25;4970987;28;8980;-78
2021/12/01 10:18:53;;;;;;;;;6.40;6.40;;;;;14.64;31.96;98929.72;4938441;28;8993;-79
2021/12/01 10:21:25;;;;;;;;;8.20;6.80;;;;;14.67;31.48;98934.03;4965381;28;8860;-78
2021/12/01 10:23:55;;;;;;;;;10.20;7.20;;;;;14.64;31.74;98928.88;4939927;28;8855;-77
2021/12/01 10:26:27;;;;;;;;;6.60;6.60;;;;;14.74;31.35;98932.97;4966587;28;8860;-78
2021/12/01 10:28:57;;;;;;;;;6.00;6.00;;;;;14.11;31.77;98929.34;4982839;28;9639;-80
2021/12/01 10:31:37;;;;;;;;;6.20;6.00;;;;;14.33;32.03;98920.03;5066955;28;8990;-79
2021/12/01 10:34:27;;;;;;;;;7.60;7.60;;;;;14.49;32.07;98912.59;5049405;28;8883;-79
2021/12/01 10:37:15;;;;;;;;;9.80;7.40;;;;;14.38;30.81;98914.66;4991071;28;8854;-80
2021/12/01 10:39:46;;;;;;;;;8.40;8.40;;;;;14.57;31.81;98915.06;4992808;28;8885;-79
2021/12/01 10:42:17;;;;;;;;;10.40;7.40;;;;;14.56;30.78;98913.31;4988991;28;8858;-79
2021/12/01 10:44:58;;;;;;;;;6.80;6.80;;;;;14.72;31.59;98898.88;4995533;28;8980;-79
2021/12/01 10:47:37;;;;;;;;;8.00;7.40;;;;;14.43;31.16;98883.91;4957514;28;8887;-78
2021/12/01 10:50:10;;;;;;;;;6.80;5.00;;;;;14.70;31.64;98887.56;4978397;28;8992;-76
2021/12/01 10:52:41;;;;;;;;;5.00;5.00;;;;;14.61;30.98;98880.84;5007980;28;8955;-77
2021/12/01 10:55:13;;;;;;;;;3.40;3.40;;;;;14.59;31.19;98877.38;4991735;28;8989;-76
2021/12/01 10:57:44;;;;;;;;;4.00;4.00;;;;;14.81;30.03;98872.38;4986908;28;8879;-76
2021/12/01 11:00:17;;;;;;;;;4.00;4.00;;;;;14.86;30.06;98867.00;5003910;28;8947;-79
2021/12/01 11:02:46;;;;;;;;;4.60;4.60;;;;;14.82;30.35;98866.25;4988113;28;9065;-78
2021/12/01 11:05:29;;;;;;;;;5.80;4.80;;;;;14.90;30.24;98866.00;4973227;28;8928;-77
2021/12/01 11:08:09;;;;;;;;;5.20;5.20;;;;;14.97;30.27;98862.31;4957197;28;8872;-78
2021/12/01 11:10:38;;;;;;;;;6.00;5.80;;;;;14.87;30.30;98849.50;5006658;28;8850;-77
2021/12/01 11:13:08;;;;;;;;;5.20;4.60;;;;;14.98;31.41;98843.00;4978289;28;8878;-75
2021/12/01 11:15:39;;;;;;;;;11.00;7.80;;;;;14.47;30.63;98845.34;5081517;28;8936;-77
2021/12/01 11:18:30;;;;;;;;;4.00;4.00;;;;;14.58;31.13;98846.78;5044712;28;8871;-78
2021/12/01 11:21:11;;;;;;;;;8.40;8.40;;;;;14.72;31.04;98835.03;5044505;28;8949;-80
2021/12/01 11:23:42;;;;;;;;;8.60;7.00;;;;;14.80;30.61;98833.94;5048726;28;9652;-77
2021/12/01 11:26:12;;;;;;;;;5.60;5.00;;;;;14.53;31.00;98832.91;5050473;28;8870;-76
2021/12/01 11:28:44;;;;;;;;;6.60;6.60;;;;;14.73;31.36;98831.53;5031283;28;8848;-77
2021/12/01 11:31:15;;;;;;;;;5.40;5.20;;;;;14.76;31.36;98824.44;5050034;28;8865;-76
2021/12/01 11:33:45;;;;;;;;;7.40;7.00;;;;;14.77;31.22;98822.66;5048639;28;8937;-78
2021/12/01 11:36:17;;;;;;;;;6.60;6.20;;;;;14.82;31.12;98816.38;5030734;28;8966;-79
2021/12/01 11:38:50;;;;;;;;;9.00;7.00;;;;;14.93;30.84;98817.78;5047488;28;8915;-77
2021/12/01 11:41:19;;;;;;;;;7.00;7.00;;;;;14.33;32.35;98820.34;5045509;28;8979;-78
2021/12/01 11:43:50;;;;;;;;;6.40;6.40;;;;;14.55;31.50;98804.84;5007381;28;8898;-79
2021/12/01 11:46:19;;;;;;;;;5.40;5.40;;;;;14.70;31.61;98815.84;5010501;28;8937;-76
2021/12/01 11:48:50;;;;;;;;;10.60;7.80;;;;;14.01;32.23;98816.84;4942542;28;8870;-78
2021/12/01 11:51:24;;;;;;;;;8.20;6.80;;;;;14.31;31.97;98810.78;5003996;28;8876;-78
2021/12/01 11:53:56;;;;;;;;;8.60;7.40;;;;;14.30;31.81;98809.09;4989935;28;8948;-76
2021/12/01 11:56:29;;;;;;;;;8.20;7.00;;;;;14.24;31.90;98807.50;5024618;28;8903;-77
2021/12/01 11:59:04;;;;;;;;;8.80;6.60;;;;;14.41;32.60;98799.16;5026843;28;9054;-77